METAR Data
IDs: Format: Raw Decoded Include TAF

Data at: 0951 UTC 25 Mar 2019

Region: TOP
KATL 250852Z 20004KT 10SM FEW110 BKN200 BKN250 13/06 A3006 RMK AO2 SLP175 T01280056 58012

KBOS 250854Z 25007KT 10SM FEW150 OVC250 09/M07 A2996 RMK AO2 SLP144 T00891067 56002

KBWI 250854Z 06003KT 10SM BKN095 BKN140 OVC200 09/04 A3001 RMK AO2 SLP162 T00890039 58012

KCLE 250851Z 01012KT 10SM FEW027 FEW070 BKN085 OVC150 03/M01 A3012 RMK AO2 RAE31 SLP201 P0000 60001 T00281006 50003

KCLT 250852Z 00000KT 10SM FEW250 11/08 A3007 RMK AO2 SLP179 T01110078 58012

KCVG 250852Z 08011KT 1SM R18C/3500VP6000FT -DZ BR BKN003 OVC019 09/08 A2995 RMK AO2 SFC VIS 2 RAE37DZB39 SLP141 P0000 60031 T00940083 58028

KDCA 250852Z COR 04004KT 10SM BKN100 OVC150 10/04 A3003 RMK AO2 SLP169 T01000039 56007 $

KDEN 250941Z 29006KT 1/2SM R35L/P6000FT FG OVC001 01/00 A3021 RMK AO2 T00110000

KDFW 250853Z 03007KT 10SM FEW060 14/11 A3003 RMK AO2 SLP162 T01440106 53004

KDTW 250853Z 23008KT 10SM BKN070 BKN100 OVC180 00/M06 A3017 RMK AO2 SLP219 T00001061 51003 $

KEWR 250851Z 30007KT 10SM OVC080 12/M02 A3000 RMK AO2 SLP157 T01221017 58013

KFLL 250853Z 12007KT 10SM CLR 22/16 A3009 RMK AO2 SLP187 T02220156 56019

KIAD 250852Z 00000KT 10SM BKN095 OVC110 07/02 A3002 RMK AO2 SLP164 T00720022 56011

KIAH 250937Z 21005KT 7SM OVC012 21/19 A3004 RMK AO2 BINOVC T02060194

KJFK 250851Z 30007KT 10SM BKN080 OVC095 12/M01 A3000 RMK AO2 SLP159 T01171006 58013

KLAS 250856Z 21005KT 10SM CLR 13/00 A3017 RMK AO2 SLP206 T01280000 $

KLAX 250853Z 00000KT 10SM FEW012 14/12 A3014 RMK AO2 SLP205 T01390117 58007

KLGA 250851Z 33007KT 10SM OVC085 11/01 A2999 RMK AO2 SLP156 T01110011 56010

KMCO 250853Z 00000KT 10SM FEW060 16/13 A3012 RMK AO2 SLP197 T01560133 58018

KMDW 250942Z 03016G26KT 8SM BKN013 OVC050 02/M01 A3014 RMK AO2 PK WND 02026/0938 T00221006

KMEM 250854Z 17005KT 10SM FEW028 BKN180 OVC250 13/13 A2995 RMK AO2 SLP141 60014 T01330128 56029 PNO $

KMIA 250853Z 00000KT 10SM FEW035 21/16 A3009 RMK AO2 SLP189 T02060161 56019 $

KMSP 250853Z 03008KT 10SM OVC050 M02/M09 A3033 RMK AO2 SLP278 T10171094 51006

KORD 250943Z 02021G26KT 10SM BKN014 OVC055 01/M01 A3016 RMK AO2 PK WND 02029/0907 T00111011

KPDX 250853Z 27003KT 10SM FEW170 BKN230 06/02 A3004 RMK AO2 SLP172 T00560022 58020

KPHL 250854Z 00000KT 10SM BKN100 OVC150 11/00 A3002 RMK AO2 SLP166 T01060000 56015

KPHX 250851Z 00000KT 10SM CLR 16/03 A3010 RMK AO2 SLP180 T01610028 58006

KPIT 250851Z 00000KT 10SM SCT040 OVC055 06/06 A3004 RMK AO2 SLP182 60000 T00610056 56007

KSAN 250851Z 00000KT 10SM CLR 14/11 A3016 RMK AO2 SLP213 T01390111 57004

KSEA 250853Z 07006KT 10SM SCT220 08/03 A3010 RMK AO2 SLP201 T00830033 58015

KSFO 250856Z 17005KT 10SM FEW120 BKN180 12/03 A3009 RMK AO2 SLP188 T01220033 58018

KSLC 250854Z 17005KT 10SM FEW075 03/01 A3031 RMK AO2 SLP265 T00280011 55000

KSTL 250912Z COR 01013G20KT 7SM -RA BR OVC005 11/09 A2998 RMK AO2 CIG 003V008 P0000 T01060089 $

KTPA 250853Z VRB03KT 10SM FEW065 19/16 A3011 RMK AO2 SLP196 T01940156 56018 $